Time;durP1;ratioP1;P1;durP2;ratioP2;P2;SDS_P1;SDS_P2;PMS_P1;PMS_P2;Temp;Humidity;BMP_temperature;BMP_pressure;BME280_temperature;BME280_humidity;BME280_pressure;Samples;Min_cycle;Max_cycle;Signal;HPM_P1;HPM_P2
2021/10/14 00:00:26;;;;;;;2.30;1.83;;;;;;;;;;4935459;29;20205;-81
2021/10/14 00:02:54;;;;;;;2.10;2.00;;;;;;;;;;4935766;29;20213;-81
2021/10/14 00:05:21;;;;;;;3.63;2.55;;;;;;;;;;4935838;29;20186;-81
2021/10/14 00:07:49;;;;;;;1.83;1.70;;;;;;;;;;4935412;29;20229;-81
2021/10/14 00:10:18;;;;;;;2.40;2.17;;;;;;;;;;4935819;29;20194;-81
2021/10/14 00:12:45;;;;;;;3.05;2.13;;;;;;;;;;4935485;29;20213;-81
2021/10/14 00:15:13;;;;;;;2.40;2.20;;;;;;;;;;4935371;29;20205;-81
2021/10/14 00:17:40;;;;;;;1.95;1.55;;;;;;;;;;4935729;29;20225;-81
2021/10/14 00:20:09;;;;;;;2.28;2.10;;;;;;;;;;4934925;29;20208;-81
2021/10/14 00:22:37;;;;;;;4.22;3.25;;;;;;;;;;4935530;29;20201;-81
2021/10/14 00:25:06;;;;;;;4.18;3.17;;;;;;;;;;4935163;29;20216;-81
2021/10/14 00:27:35;;;;;;;2.53;2.08;;;;;;;;;;4934791;29;20238;-81
2021/10/14 00:30:02;;;;;;;3.00;2.33;;;;;;;;;;4935336;29;20213;-81
2021/10/14 00:32:30;;;;;;;2.85;2.50;;;;;;;;;;4935479;29;20209;-81
2021/10/14 00:34:57;;;;;;;3.38;3.00;;;;;;;;;;4935127;29;20182;-81
2021/10/14 00:37:24;;;;;;;2.97;2.78;;;;;;;;;;4952554;29;20220;-81
2021/10/14 00:39:52;;;;;;;3.42;3.13;;;;;;;;;;4954078;29;20201;-81
2021/10/14 00:42:19;;;;;;;3.03;2.83;;;;;;;;;;4954230;28;20215;-80
2021/10/14 00:44:51;;;;;;;2.45;2.25;;;;;;;;;;4956006;28;20193;-81
2021/10/14 00:47:19;;;;;;;3.35;3.15;;;;;;;;;;4957991;29;20576;-81
2021/10/14 00:49:47;;;;;;;2.75;2.20;;;;;;;;;;4958569;29;20193;-81
2021/10/14 00:52:14;;;;;;;2.58;2.40;;;;;;;;;;4957832;28;20232;-81
2021/10/14 00:54:42;;;;;;;2.75;2.22;;;;;;;;;;4957589;29;20641;-81
2021/10/14 00:57:10;;;;;;;2.28;2.17;;;;;;;;;;4957872;29;20610;-81
2021/10/14 00:59:37;;;;;;;2.80;2.60;;;;;;;;;;4957813;28;20205;-81
2021/10/14 01:02:06;;;;;;;3.75;3.45;;;;;;;;;;4957669;29;20204;-81
2021/10/14 01:04:34;;;;;;;2.92;2.63;;;;;;;;;;4957512;28;20189;-81
2021/10/14 01:07:02;;;;;;;3.80;3.50;;;;;;;;;;4956951;29;20209;-81
2021/10/14 01:09:30;;;;;;;2.60;2.40;;;;;;;;;;4956943;29;20200;-81
2021/10/14 01:12:00;;;;;;;2.47;2.28;;;;;;;;;;4956988;29;20193;-81
2021/10/14 01:14:27;;;;;;;2.50;2.30;;;;;;;;;;4957127;29;20181;-81
2021/10/14 01:16:55;;;;;;;3.08;2.88;;;;;;;;;;4956984;28;20208;-81
2021/10/14 01:19:23;;;;;;;2.92;2.72;;;;;;;;;;4956526;29;20205;-81
2021/10/14 01:21:53;;;;;;;3.72;3.30;;;;;;;;;;4955924;29;20686;-81
2021/10/14 01:24:21;;;;;;;3.53;3.13;;;;;;;;;;4956903;29;20562;-81
2021/10/14 01:26:49;;;;;;;2.83;2.63;;;;;;;;;;4956098;29;20216;-82
2021/10/14 01:29:17;;;;;;;3.40;3.20;;;;;;;;;;4957013;29;20724;-81
2021/10/14 01:31:44;;;;;;;3.42;3.13;;;;;;;;;;4956909;29;20194;-81
2021/10/14 01:34:11;;;;;;;2.63;2.42;;;;;;;;;;4956707;29;20227;-81
2021/10/14 01:36:39;;;;;;;3.40;2.88;;;;;;;;;;4956017;28;20197;-82
2021/10/14 01:39:08;;;;;;;2.75;2.55;;;;;;;;;;4956591;29;20232;-81
2021/10/14 01:41:35;;;;;;;3.05;2.75;;;;;;;;;;4956280;29;20809;-81
2021/10/14 01:44:03;;;;;;;2.78;2.58;;;;;;;;;;4956584;28;20212;-81
2021/10/14 01:46:30;;;;;;;2.95;2.75;;;;;;;;;;4956449;29;20194;-81
2021/10/14 01:48:58;;;;;;;4.28;3.90;;;;;;;;;;4955783;29;20243;-82
2021/10/14 01:51:25;;;;;;;3.25;3.05;;;;;;;;;;4959899;28;20258;-83
2021/10/14 01:53:52;;;;;;;3.15;2.85;;;;;;;;;;4975254;28;20200;-82
2021/10/14 01:56:21;;;;;;;3.55;3.35;;;;;;;;;;4975371;28;20197;-82
2021/10/14 01:58:48;;;;;;;3.75;3.45;;;;;;;;;;4975540;28;20236;-82
2021/10/14 02:01:16;;;;;;;3.22;2.92;;;;;;;;;;4975250;28;20223;-82
2021/10/14 02:03:43;;;;;;;3.80;3.50;;;;;;;;;;4975424;28;20208;-82
2021/10/14 02:06:11;;;;;;;3.60;3.17;;;;;;;;;;4975065;28;20204;-81
2021/10/14 02:08:38;;;;;;;4.05;3.65;;;;;;;;;;4975759;28;20236;-82
2021/10/14 02:11:05;;;;;;;3.40;3.08;;;;;;;;;;4975273;28;20208;-82
2021/10/14 02:13:34;;;;;;;2.88;2.67;;;;;;;;;;4975262;28;20212;-81
2021/10/14 02:16:02;;;;;;;2.30;2.10;;;;;;;;;;4975190;28;20215;-82
2021/10/14 02:18:29;;;;;;;2.70;2.50;;;;;;;;;;4974320;28;20220;-82
2021/10/14 02:20:57;;;;;;;2.55;2.28;;;;;;;;;;4975094;28;20215;-81
2021/10/14 02:23:24;;;;;;;4.30;3.90;;;;;;;;;;4974974;28;20208;-82
2021/10/14 02:25:52;;;;;;;3.35;3.05;;;;;;;;;;4974325;28;20189;-81
2021/10/14 02:28:19;;;;;;;3.40;3.20;;;;;;;;;;4974592;28;20228;-81
2021/10/14 02:30:48;;;;;;;4.63;4.13;;;;;;;;;;4974664;28;20660;-82
2021/10/14 02:33:15;;;;;;;3.55;3.25;;;;;;;;;;4974791;28;20588;-82
2021/10/14 02:35:43;;;;;;;2.95;2.75;;;;;;;;;;4974384;28;20192;-82
2021/10/14 02:38:10;;;;;;;2.33;2.13;;;;;;;;;;4973840;28;20224;-82
2021/10/14 02:40:38;;;;;;;2.78;2.58;;;;;;;;;;4974515;28;20204;-81
2021/10/14 02:43:05;;;;;;;2.47;2.28;;;;;;;;;;4974608;28;20215;-82
2021/10/14 02:45:32;;;;;;;2.10;2.00;;;;;;;;;;4974781;28;20186;-82
2021/10/14 02:48:01;;;;;;;2.97;2.78;;;;;;;;;;4973950;28;20239;-82
2021/10/14 02:50:29;;;;;;;2.80;2.60;;;;;;;;;;4974602;28;20184;-82
2021/10/14 02:52:56;;;;;;;3.20;2.90;;;;;;;;;;4974399;28;20750;-81
2021/10/14 02:55:24;;;;;;;3.33;3.00;;;;;;;;;;4974569;28;20212;-82
2021/10/14 02:57:51;;;;;;;3.13;2.90;;;;;;;;;;4974128;28;20231;-82
2021/10/14 03:00:19;;;;;;;3.72;3.42;;;;;;;;;;4974583;28;20196;-81
2021/10/14 03:02:46;;;;;;;3.00;2.80;;;;;;;;;;4973985;28;20565;-82
2021/10/14 03:05:15;;;;;;;3.80;3.50;;;;;;;;;;4974042;28;20201;-82
2021/10/14 03:07:42;;;;;;;4.55;4.15;;;;;;;;;;4973683;28;20230;-83
2021/10/14 03:10:10;;;;;;;3.72;3.42;;;;;;;;;;4973610;28;20210;-81
2021/10/14 03:12:38;;;;;;;4.22;3.30;;;;;;;;;;4973788;28;20215;-81
2021/10/14 03:15:07;;;;;;;4.10;3.80;;;;;;;;;;4973772;28;20200;-81
2021/10/14 03:17:35;;;;;;;2.83;2.63;;;;;;;;;;4974259;28;20220;-81
2021/10/14 03:20:02;;;;;;;2.50;2.33;;;;;;;;;;4974398;28;20569;-81
2021/10/14 03:22:31;;;;;;;2.47;2.30;;;;;;;;;;4973953;28;20205;-82
2021/10/14 03:24:59;;;;;;;3.95;3.55;;;;;;;;;;4974411;28;20188;-82
2021/10/14 03:27:27;;;;;;;4.95;4.55;;;;;;;;;;4973657;28;20220;-82
2021/10/14 03:29:54;;;;;;;3.25;3.00;;;;;;;;;;4974261;28;20224;-82
2021/10/14 03:32:22;;;;;;;3.22;3.03;;;;;;;;;;4974458;28;20199;-82
2021/10/14 03:34:50;;;;;;;3.42;3.13;;;;;;;;;;4974493;28;20188;-84
2021/10/14 03:37:18;;;;;;;4.28;3.30;;;;;;;;;;4974148;28;20303;-84
2021/10/14 03:39:47;;;;;;;3.08;2.80;;;;;;;;;;4973873;28;20184;-83
2021/10/14 03:42:16;;;;;;;3.78;3.47;;;;;;;;;;4973717;28;20199;-83
2021/10/14 03:44:43;;;;;;;4.93;4.40;;;;;;;;;;4973910;28;20220;-83
2021/10/14 03:47:11;;;;;;;5.47;5.05;;;;;;;;;;4973445;28;20196;-82
2021/10/14 03:49:38;;;;;;;4.65;3.67;;;;;;;;;;4973469;28;20208;-82
2021/10/14 03:52:06;;;;;;;3.20;3.00;;;;;;;;;;4972798;28;20228;-82
2021/10/14 03:54:33;;;;;;;3.35;3.08;;;;;;;;;;4973604;28;20200;-82
2021/10/14 03:57:02;;;;;;;2.88;2.67;;;;;;;;;;4973500;28;20185;-82
2021/10/14 03:59:29;;;;;;;3.92;3.63;;;;;;;;;;4973732;28;20285;-83
2021/10/14 04:01:57;;;;;;;3.83;3.53;;;;;;;;;;4973418;28;20215;-83
2021/10/14 04:04:24;;;;;;;5.70;5.20;;;;;;;;;;4974193;28;20219;-82
2021/10/14 04:06:52;;;;;;;5.57;4.60;;;;;;;;;;4974227;28;20211;-82
2021/10/14 04:09:19;;;;;;;3.47;3.17;;;;;;;;;;4974310;28;20235;-83
2021/10/14 04:11:46;;;;;;;4.07;3.78;;;;;;;;;;4973498;28;20196;-82
2021/10/14 04:14:16;;;;;;;4.13;3.75;;;;;;;;;;4972967;28;20204;-82
2021/10/14 04:16:44;;;;;;;5.90;5.40;;;;;;;;;;4973142;28;20204;-82
2021/10/14 04:19:12;;;;;;;5.82;5.28;;;;;;;;;;4974890;28;20596;-82
2021/10/14 04:21:39;;;;;;;5.72;5.22;;;;;;;;;;4977071;28;20199;-82
2021/10/14 04:24:07;;;;;;;4.13;3.72;;;;;;;;;;4976769;28;20253;-82
2021/10/14 04:26:34;;;;;;;4.45;4.05;;;;;;;;;;4977691;28;20185;-82
2021/10/14 04:29:02;;;;;;;5.22;4.80;;;;;;;;;;4977707;28;20263;-82
2021/10/14 04:31:31;;;;;;;3.95;3.60;;;;;;;;;;4977016;28;20212;-83
2021/10/14 04:33:58;;;;;;;3.97;3.67;;;;;;;;;;4977386;28;20208;-82
2021/10/14 04:36:26;;;;;;;5.68;5.18;;;;;;;;;;4977214;28;20180;-82
2021/10/14 04:38:54;;;;;;;5.90;5.20;;;;;;;;;;4977086;28;20224;-83
2021/10/14 04:41:21;;;;;;;4.35;3.90;;;;;;;;;;4977305;28;20235;-83
2021/10/14 04:43:49;;;;;;;5.53;5.03;;;;;;;;;;4976484;28;20208;-83
2021/10/14 04:46:16;;;;;;;5.53;5.03;;;;;;;;;;4976965;28;20283;-83
2021/10/14 04:48:45;;;;;;;6.50;5.85;;;;;;;;;;4976249;28;20603;-83
2021/10/14 04:51:12;;;;;;;5.60;5.07;;;;;;;;;;4980353;28;20207;-82
2021/10/14 04:53:40;;;;;;;4.80;4.30;;;;;;;;;;4976578;28;20196;-82
2021/10/14 04:56:07;;;;;;;5.05;4.57;;;;;;;;;;4976250;28;20219;-82
2021/10/14 04:58:35;;;;;;;4.72;4.32;;;;;;;;;;4976083;28;20235;-82
2021/10/14 05:01:02;;;;;;;5.25;4.30;;;;;;;;;;4976207;28;20194;-82
2021/10/14 05:03:29;;;;;;;4.47;4.15;;;;;;;;;;4966676;28;20212;-82
2021/10/14 05:05:58;;;;;;;3.50;3.10;;;;;;;;;;4957220;29;20189;-82
2021/10/14 05:08:26;;;;;;;3.67;3.38;;;;;;;;;;4957166;29;20225;-82
2021/10/14 05:10:53;;;;;;;3.28;3.08;;;;;;;;;;4955340;29;20221;-82
2021/10/14 05:13:21;;;;;;;3.95;3.65;;;;;;;;;;4949992;29;20202;-82
2021/10/14 05:15:48;;;;;;;5.70;5.20;;;;;;;;;;4943934;29;20194;-83
2021/10/14 05:18:15;;;;;;;3.88;3.58;;;;;;;;;;4956370;29;20305;-82
2021/10/14 05:20:43;;;;;;;4.88;4.18;;;;;;;;;;4951054;29;20188;-82
2021/10/14 05:23:12;;;;;;;3.72;3.42;;;;;;;;;;4937339;29;20205;-83
2021/10/14 05:25:40;;;;;;;3.80;3.50;;;;;;;;;;4937539;29;20213;-81
2021/10/14 05:28:07;;;;;;;3.97;3.67;;;;;;;;;;4935807;29;20947;-83
2021/10/14 05:30:35;;;;;;;6.30;5.70;;;;;;;;;;4936228;29;20217;-83
2021/10/14 05:33:02;;;;;;;5.53;4.60;;;;;;;;;;4938436;29;20202;-83
2021/10/14 05:35:30;;;;;;;4.55;4.15;;;;;;;;;;4937872;29;20186;-84
2021/10/14 05:37:57;;;;;;;4.18;3.78;;;;;;;;;;4937945;29;20233;-83
2021/10/14 05:40:27;;;;;;;3.78;3.40;;;;;;;;;;4937901;29;20649;-84
2021/10/14 05:42:55;;;;;;;4.20;3.90;;;;;;;;;;4942102;29;20186;-83
2021/10/14 05:45:22;;;;;;;4.57;4.18;;;;;;;;;;4955083;29;20189;-84
2021/10/14 05:47:50;;;;;;;4.47;4.00;;;;;;;;;;4957011;29;20703;-84
2021/10/14 05:50:18;;;;;;;3.60;3.30;;;;;;;;;;4937467;29;20760;-83
2021/10/14 05:52:46;;;;;;;3.00;2.80;;;;;;;;;;4958058;28;20225;-84
2021/10/14 05:55:14;;;;;;;5.47;4.88;;;;;;;;;;4975096;28;20209;-84
2021/10/14 05:57:43;;;;;;;5.72;5.22;;;;;;;;;;4957214;28;20225;-84
2021/10/14 06:00:13;;;;;;;3.92;3.63;;;;;;;;;;4956538;28;20360;-84
2021/10/14 06:02:41;;;;;;;3.00;2.80;;;;;;;;;;4957888;28;20197;-83
2021/10/14 06:05:10;;;;;;;4.95;4.47;;;;;;;;;;4955914;29;20181;-84
2021/10/14 06:07:37;;;;;;;3.58;3.28;;;;;;;;;;4964260;28;20336;-84
2021/10/14 06:10:06;;;;;;;4.82;4.43;;;;;;;;;;4972970;28;20204;-84
2021/10/14 06:12:34;;;;;;;5.35;4.88;;;;;;;;;;4975003;28;20189;-84
2021/10/14 06:15:04;;;;;;;3.92;3.63;;;;;;;;;;4971869;28;20192;-83
2021/10/14 06:17:32;;;;;;;3.75;3.10;;;;;;;;;;4975302;28;20232;-84
2021/10/14 06:20:00;;;;;;;3.80;3.50;;;;;;;;;;4973183;28;20197;-84
2021/10/14 06:22:27;;;;;;;3.05;2.75;;;;;;;;;;4975108;28;20185;-84
2021/10/14 06:24:55;;;;;;;4.32;3.95;;;;;;;;;;4968746;28;20193;-84
2021/10/14 06:27:22;;;;;;;2.63;2.42;;;;;;;;;;4960773;28;20216;-83
2021/10/14 06:29:50;;;;;;;2.35;2.15;;;;;;;;;;4974776;28;20196;-83
2021/10/14 06:32:19;;;;;;;3.35;3.05;;;;;;;;;;4975008;28;20193;-84
2021/10/14 06:34:46;;;;;;;3.45;3.25;;;;;;;;;;4974497;28;20185;-84
2021/10/14 06:37:13;;;;;;;4.70;4.30;;;;;;;;;;4972791;28;20203;-83
2021/10/14 06:39:42;;;;;;;3.88;3.58;;;;;;;;;;4974514;28;20203;-84
2021/10/14 06:42:09;;;;;;;3.95;3.65;;;;;;;;;;4967242;28;20208;-83
2021/10/14 06:44:37;;;;;;;3.03;2.83;;;;;;;;;;4961072;28;20576;-83
2021/10/14 06:47:05;;;;;;;2.85;2.65;;;;;;;;;;4956151;28;20667;-84
2021/10/14 06:49:34;;;;;;;2.22;2.10;;;;;;;;;;4954882;29;20182;-84
2021/10/14 06:52:01;;;;;;;4.55;4.15;;;;;;;;;;4955931;28;20797;-84
2021/10/14 06:54:29;;;;;;;3.75;3.42;;;;;;;;;;4955113;29;20216;-83
2021/10/14 06:56:57;;;;;;;3.05;2.85;;;;;;;;;;4956322;28;20189;-84
2021/10/14 06:59:25;;;;;;;3.40;3.17;;;;;;;;;;4955170;29;20603;-84
2021/10/14 07:01:53;;;;;;;3.20;2.97;;;;;;;;;;4969927;28;20200;-83
2021/10/14 07:04:20;;;;;;;3.78;3.35;;;;;;;;;;4974183;28;20208;-84
2021/10/14 07:06:49;;;;;;;5.38;3.53;;;;;;;;;;4972229;28;20193;-84
2021/10/14 07:09:17;;;;;;;5.18;4.78;;;;;;;;;;4972178;28;20243;-83
2021/10/14 07:11:52;;;;;;;4.13;3.72;;;;;;;;;;4971894;28;20224;-83
2021/10/14 07:14:19;;;;;;;4.95;4.50;;;;;;;;;;4974099;28;20187;-84
2021/10/14 07:16:47;;;;;;;4.07;3.75;;;;;;;;;;4972097;28;20644;-83
2021/10/14 07:19:14;;;;;;;4.45;4.05;;;;;;;;;;4964249;28;20217;-83
2021/10/14 07:21:42;;;;;;;4.60;4.20;;;;;;;;;;4954253;28;20205;-83
2021/10/14 07:24:12;;;;;;;4.13;3.63;;;;;;;;;;4954910;29;20581;-83
2021/10/14 07:26:40;;;;;;;4.43;4.03;;;;;;;;;;4954568;29;20189;-83
2021/10/14 07:29:08;;;;;;;3.75;3.45;;;;;;;;;;4954528;29;20217;-83
2021/10/14 07:31:36;;;;;;;3.83;3.53;;;;;;;;;;4954738;29;20225;-83
2021/10/14 07:34:04;;;;;;;3.60;3.30;;;;;;;;;;4954392;29;20645;-83
2021/10/14 07:36:32;;;;;;;4.32;3.92;;;;;;;;;;4954199;29;20479;-85
2021/10/14 07:39:01;;;;;;;3.97;3.65;;;;;;;;;;4954280;29;20216;-83
2021/10/14 07:41:30;;;;;;;3.97;3.67;;;;;;;;;;4954619;28;20208;-83
2021/10/14 07:43:58;;;;;;;3.22;3.03;;;;;;;;;;4954119;29;20209;-82
2021/10/14 07:46:25;;;;;;;5.22;4.13;;;;;;;;;;4955270;29;20200;-83
2021/10/14 07:48:53;;;;;;;3.55;3.25;;;;;;;;;;4955687;29;20232;-84
2021/10/14 07:51:20;;;;;;;2.78;2.53;;;;;;;;;;4955003;28;20236;-83
2021/10/14 07:54:43;;;;;;;3.10;2.80;;;;;;;;;;4958698;28;20231;-83
2021/10/14 07:57:15;;;;;;;3.10;2.80;;;;;;;;;;4961289;29;20304;-83
2021/10/14 07:59:42;;;;;;;2.72;2.40;;;;;;;;;;4961702;29;20299;-83
2021/10/14 08:02:11;;;;;;;2.60;2.40;;;;;;;;;;4962166;28;20239;-83
2021/10/14 08:04:38;;;;;;;2.70;2.50;;;;;;;;;;4961358;28;20199;-84
2021/10/14 08:07:06;;;;;;;2.70;2.50;;;;;;;;;;4961712;29;20584;-82
2021/10/14 08:09:33;;;;;;;4.55;4.15;;;;;;;;;;4961798;29;20563;-84
2021/10/14 08:12:02;;;;;;;4.43;3.47;;;;;;;;;;4961618;29;20235;-85
2021/10/14 08:14:30;;;;;;;4.55;3.60;;;;;;;;;;4961639;29;20686;-84
2021/10/14 08:17:00;;;;;;;3.80;3.50;;;;;;;;;;4961218;28;20193;-83
2021/10/14 08:19:27;;;;;;;3.78;3.47;;;;;;;;;;4962059;28;20183;-85
2021/10/14 08:21:55;;;;;;;4.43;3.47;;;;;;;;;;4961596;28;20193;-86
2021/10/14 08:24:24;;;;;;;4.20;3.83;;;;;;;;;;4962286;29;20192;-84
2021/10/14 08:26:52;;;;;;;3.50;3.20;;;;;;;;;;4962045;28;20267;-84
2021/10/14 08:29:19;;;;;;;3.50;3.20;;;;;;;;;;4961754;28;20225;-83
2021/10/14 08:31:48;;;;;;;4.22;3.88;;;;;;;;;;4961490;28;20231;-83
2021/10/14 08:34:16;;;;;;;4.13;3.83;;;;;;;;;;4961990;29;20191;-83
2021/10/14 08:36:43;;;;;;;3.92;3.63;;;;;;;;;;4962234;28;20196;-85
2021/10/14 08:39:12;;;;;;;3.30;3.00;;;;;;;;;;4961440;28;20220;-84
2021/10/14 08:41:40;;;;;;;2.65;2.45;;;;;;;;;;4961976;28;20212;-85
2021/10/14 08:44:09;;;;;;;2.80;2.60;;;;;;;;;;4961897;28;20209;-84
2021/10/14 08:46:37;;;;;;;2.40;2.20;;;;;;;;;;4961823;29;20547;-83
2021/10/14 08:49:10;;;;;;;2.20;2.00;;;;;;;;;;4960453;29;20237;-84
2021/10/14 08:51:37;;;;;;;1.77;1.67;;;;;;;;;;4966766;28;20243;-84
2021/10/14 08:54:05;;;;;;;2.08;1.98;;;;;;;;;;4980772;28;20220;-84
2021/10/14 08:56:33;;;;;;;1.88;1.77;;;;;;;;;;4980560;28;20195;-84
2021/10/14 08:59:01;;;;;;;2.03;1.92;;;;;;;;;;4980652;28;20636;-84
2021/10/14 09:01:29;;;;;;;1.63;1.52;;;;;;;;;;4980620;28;20214;-84
2021/10/14 09:03:56;;;;;;;1.10;1.10;;;;;;;;;;4980122;28;20204;-85
2021/10/14 09:06:25;;;;;;;1.17;1.17;;;;;;;;;;4976666;28;20273;-83
2021/10/14 09:08:54;;;;;;;1.60;1.50;;;;;;;;;;4977550;28;20235;-84
2021/10/14 09:11:26;;;;;;;1.35;1.25;;;;;;;;;;4977341;28;20189;-83
2021/10/14 09:13:55;;;;;;;1.17;1.10;;;;;;;;;;4970233;28;20197;-83
2021/10/14 09:16:30;;;;;;;2.40;2.30;;;;;;;;;;4958422;29;20207;-83
2021/10/14 09:19:16;;;;;;;1.52;1.40;;;;;;;;;;4958063;29;20287;-84
2021/10/14 09:21:47;;;;;;;1.70;1.60;;;;;;;;;;4957891;29;20201;-83
2021/10/14 09:24:31;;;;;;;1.83;1.52;;;;;;;;;;4958478;29;20204;-83
2021/10/14 09:27:01;;;;;;;1.90;1.80;;;;;;;;;;4955019;29;20256;-84
2021/10/14 09:29:30;;;;;;;2.20;2.10;;;;;;;;;;4940257;29;20217;-84
2021/10/14 09:32:01;;;;;;;2.00;1.90;;;;;;;;;;4958340;29;20256;-82
2021/10/14 09:34:37;;;;;;;2.50;2.38;;;;;;;;;;4958280;29;20196;-83
2021/10/14 09:37:27;;;;;;;2.10;1.90;;;;;;;;;;4957136;29;20198;-83
2021/10/14 09:40:03;;;;;;;2.42;2.22;;;;;;;;;;4947885;29;20237;-83
2021/10/14 09:42:43;;;;;;;2.58;2.33;;;;;;;;;;4957870;29;20192;-82
2021/10/14 09:45:26;;;;;;;2.30;2.20;;;;;;;;;;4958099;29;20664;-83
2021/10/14 09:48:12;;;;;;;1.85;1.75;;;;;;;;;;4958133;29;20221;-83
2021/10/14 09:50:41;;;;;;;1.77;1.67;;;;;;;;;;4957987;29;20194;-83
2021/10/14 09:53:13;;;;;;;1.80;1.70;;;;;;;;;;4957454;28;20244;-83
2021/10/14 09:55:40;;;;;;;1.65;1.55;;;;;;;;;;4957098;29;20544;-84
2021/10/14 09:58:08;;;;;;;3.95;3.60;;;;;;;;;;4957744;29;20236;-83
2021/10/14 10:00:37;;;;;;;4.38;3.92;;;;;;;;;;4957538;29;20564;-83
2021/10/14 10:03:06;;;;;;;3.92;3.60;;;;;;;;;;4957296;29;20637;-83
2021/10/14 10:05:34;;;;;;;7.07;6.43;;;;;;;;;;4957133;29;20243;-82
2021/10/14 10:08:08;;;;;;;6.13;5.68;;;;;;;;;;4957727;29;20232;-83
2021/10/14 10:10:38;;;;;;;5.03;4.63;;;;;;;;;;4957679;29;20197;-83
2021/10/14 10:13:06;;;;;;;4.97;4.57;;;;;;;;;;4957687;29;20228;-84
2021/10/14 10:15:42;;;;;;;3.72;3.38;;;;;;;;;;4957485;29;20193;-84
2021/10/14 10:18:43;;;;;;;3.22;2.92;;;;;;;;;;4957169;29;20228;-84
2021/10/14 10:21:44;;;;;;;2.35;1.75;;;;;;;;;;4957529;29;20220;-84
2021/10/14 10:24:34;;;;;;;1.48;1.38;;;;;;;;;;4950023;29;20701;-83
2021/10/14 10:27:10;;;;;;;1.55;1.45;;;;;;;;;;4956744;28;20205;-83
2021/10/14 10:29:48;;;;;;;2.20;2.00;;;;;;;;;;4957341;29;20197;-84
2021/10/14 10:32:23;;;;;;;1.63;1.52;;;;;;;;;;4956763;29;20201;-84
2021/10/14 10:34:59;;;;;;;1.63;1.52;;;;;;;;;;4957220;29;20189;-85
2021/10/14 10:37:39;;;;;;;1.30;1.20;;;;;;;;;;4956794;29;20221;-84
2021/10/14 10:40:22;;;;;;;2.15;2.05;;;;;;;;;;4956990;29;20189;-83
2021/10/14 10:43:01;;;;;;;1.17;1.17;;;;;;;;;;4957241;29;20197;-84
2021/10/14 10:45:31;;;;;;;1.23;1.15;;;;;;;;;;4957237;29;20706;-84
2021/10/14 10:48:02;;;;;;;1.63;1.50;;;;;;;;;;4956548;29;20229;-83
2021/10/14 10:50:54;;;;;;;1.50;1.40;;;;;;;;;;4956814;29;20213;-84
2021/10/14 10:53:23;;;;;;;1.20;1.20;;;;;;;;;;4956296;28;20320;-83
2021/10/14 10:55:56;;;;;;;1.10;1.10;;;;;;;;;;4955842;29;20201;-84
2021/10/14 10:58:50;;;;;;;1.10;1.10;;;;;;;;;;4956240;29;20252;-83
2021/10/14 11:01:19;;;;;;;1.38;1.30;;;;;;;;;;4955525;29;20213;-84
2021/10/14 11:03:58;;;;;;;1.23;1.23;;;;;;;;;;4955290;29;20973;-84
2021/10/14 11:06:26;;;;;;;1.27;1.13;;;;;;;;;;4964161;28;20674;-84
2021/10/14 11:08:54;;;;;;;1.20;1.10;;;;;;;;;;4975653;28;20217;-84
2021/10/14 11:11:23;;;;;;;1.77;1.67;;;;;;;;;;4962653;28;20203;-84
2021/10/14 11:13:54;;;;;;;1.75;1.65;;;;;;;;;;4965504;28;20587;-84
2021/10/14 11:16:25;;;;;;;1.60;1.50;;;;;;;;;;4958186;28;20255;-84
2021/10/14 11:18:55;;;;;;;1.30;1.30;;;;;;;;;;4953749;29;20217;-84
2021/10/14 11:21:25;;;;;;;2.15;1.95;;;;;;;;;;4968403;28;20292;-84
2021/10/14 11:23:54;;;;;;;1.65;1.55;;;;;;;;;;4954761;29;20196;-83
2021/10/14 11:26:29;;;;;;;1.88;1.77;;;;;;;;;;4955012;28;20196;-84
2021/10/14 11:29:04;;;;;;;1.60;1.50;;;;;;;;;;4934930;29;20320;-84
2021/10/14 11:31:41;;;;;;;1.60;1.50;;;;;;;;;;4941734;28;20189;-83
2021/10/14 11:34:15;;;;;;;1.88;1.77;;;;;;;;;;4956739;28;20229;-84
2021/10/14 11:36:51;;;;;;;1.38;1.27;;;;;;;;;;4966371;28;20184;-83
2021/10/14 11:39:20;;;;;;;1.10;1.10;;;;;;;;;;4958657;28;20220;-83
2021/10/14 11:41:56;;;;;;;1.10;1.10;;;;;;;;;;4954163;29;20200;-83
2021/10/14 11:44:27;;;;;;;1.20;1.20;;;;;;;;;;4954500;28;20193;-83
2021/10/14 11:46:55;;;;;;;2.08;1.95;;;;;;;;;;4961357;28;20206;-83
2021/10/14 11:49:23;;;;;;;1.60;1.50;;;;;;;;;;4967736;28;20582;-83
2021/10/14 11:51:51;;;;;;;1.50;1.40;;;;;;;;;;4960137;28;20228;-83
2021/10/14 11:54:20;;;;;;;1.80;1.70;;;;;;;;;;4973079;28;20255;-83
2021/10/14 11:56:51;;;;;;;1.80;1.70;;;;;;;;;;4973369;28;20207;-83
2021/10/14 11:59:22;;;;;;;1.33;1.30;;;;;;;;;;4973101;28;20228;-83
2021/10/14 12:01:54;;;;;;;1.50;1.40;;;;;;;;;;4959257;28;20670;-83
2021/10/14 12:04:25;;;;;;;1.77;1.67;;;;;;;;;;4953798;29;20709;-82
2021/10/14 12:06:52;;;;;;;1.40;1.30;;;;;;;;;;4949635;29;20204;-82
2021/10/14 12:09:20;;;;;;;1.10;1.10;;;;;;;;;;4954140;29;20228;-82
2021/10/14 12:11:47;;;;;;;1.50;1.40;;;;;;;;;;4954152;29;20546;-83
2021/10/14 12:14:25;;;;;;;1.77;1.67;;;;;;;;;;4944393;29;20217;-83
2021/10/14 12:17:08;;;;;;;1.20;1.13;;;;;;;;;;4958488;28;20204;-84
2021/10/14 12:19:42;;;;;;;1.90;1.80;;;;;;;;;;4968942;28;20210;-84
2021/10/14 12:22:12;;;;;;;1.52;1.42;;;;;;;;;;4957792;28;20243;-84
2021/10/14 12:24:55;;;;;;;1.48;1.38;;;;;;;;;;4955232;29;20635;-83
2021/10/14 12:27:23;;;;;;;1.75;1.65;;;;;;;;;;4946326;29;20286;-83
2021/10/14 12:29:51;;;;;;;2.28;1.40;;;;;;;;;;4935599;29;20190;-83
2021/10/14 12:32:22;;;;;;;2.25;2.05;;;;;;;;;;4935904;29;20249;-83
2021/10/14 12:34:57;;;;;;;1.65;1.55;;;;;;;;;;4935658;29;20218;-83
2021/10/14 12:37:30;;;;;;;1.50;1.40;;;;;;;;;;4935627;29;20247;-83
2021/10/14 12:40:16;;;;;;;1.50;1.40;;;;;;;;;;4936007;29;20189;-83
2021/10/14 12:42:51;;;;;;;1.60;1.50;;;;;;;;;;4939445;29;20190;-84
2021/10/14 12:45:29;;;;;;;2.05;1.95;;;;;;;;;;4939263;29;20260;-83
2021/10/14 12:48:15;;;;;;;1.65;1.55;;;;;;;;;;4939231;29;20221;-84
2021/10/14 12:51:05;;;;;;;1.83;1.73;;;;;;;;;;4939318;29;20234;-83
2021/10/14 12:53:45;;;;;;;1.60;1.50;;;;;;;;;;4939077;29;20301;-83
2021/10/14 12:56:14;;;;;;;1.60;1.50;;;;;;;;;;4939026;29;20239;-83
2021/10/14 12:58:42;;;;;;;1.40;1.30;;;;;;;;;;4939256;29;20233;-83
2021/10/14 13:01:12;;;;;;;1.75;1.65;;;;;;;;;;4939757;29;20212;-84
2021/10/14 13:03:41;;;;;;;1.40;1.40;;;;;;;;;;4939455;29;20202;-83
2021/10/14 13:06:09;;;;;;;1.65;1.55;;;;;;;;;;4939608;29;20628;-83
2021/10/14 13:08:39;;;;;;;1.25;1.25;;;;;;;;;;4939390;29;20228;-83
2021/10/14 13:11:09;;;;;;;1.80;1.70;;;;;;;;;;4939602;29;20193;-83
2021/10/14 13:13:37;;;;;;;1.58;1.48;;;;;;;;;;4939399;29;20190;-83
2021/10/14 13:16:08;;;;;;;1.30;1.23;;;;;;;;;;4939339;29;20221;-85
2021/10/14 13:18:36;;;;;;;1.40;1.30;;;;;;;;;;4938924;29;20225;-84
2021/10/14 13:21:08;;;;;;;1.52;1.42;;;;;;;;;;4941132;29;20186;-83
2021/10/14 13:23:36;;;;;;;1.30;1.20;;;;;;;;;;4942079;29;20212;-84
2021/10/14 13:26:04;;;;;;;1.52;1.42;;;;;;;;;;4960553;29;20623;-84
2021/10/14 13:28:34;;;;;;;1.60;1.50;;;;;;;;;;4959612;29;20730;-84
2021/10/14 13:31:04;;;;;;;1.45;1.35;;;;;;;;;;4958369;29;20193;-83
2021/10/14 13:33:33;;;;;;;1.63;1.52;;;;;;;;;;4959656;29;20189;-84
2021/10/14 13:36:05;;;;;;;1.02;1.02;;;;;;;;;;4958365;29;20229;-84
2021/10/14 13:38:34;;;;;;;1.50;1.40;;;;;;;;;;4938775;29;20230;-84
2021/10/14 13:41:06;;;;;;;1.10;1.10;;;;;;;;;;4938987;29;20205;-83
2021/10/14 13:43:36;;;;;;;1.30;1.30;;;;;;;;;;4939430;29;20272;-84
2021/10/14 13:46:05;;;;;;;1.00;1.00;;;;;;;;;;4949319;29;20540;-83
2021/10/14 13:48:33;;;;;;;1.10;1.10;;;;;;;;;;4957725;29;20583;-84
2021/10/14 13:51:02;;;;;;;2.10;1.20;;;;;;;;;;4956633;28;20185;-84
2021/10/14 13:53:29;;;;;;;1.30;1.20;;;;;;;;;;4958587;29;20201;-85
2021/10/14 13:55:58;;;;;;;1.15;1.15;;;;;;;;;;4959333;29;20300;-84
2021/10/14 13:58:26;;;;;;;1.40;1.30;;;;;;;;;;4957861;29;20229;-84
2021/10/14 14:00:54;;;;;;;2.90;1.58;;;;;;;;;;4958581;29;20200;-84
2021/10/14 14:03:21;;;;;;;1.00;1.00;;;;;;;;;;4955150;29;20197;-84
2021/10/14 14:05:50;;;;;;;1.15;1.15;;;;;;;;;;4956990;29;20190;-84
2021/10/14 14:08:19;;;;;;;1.40;1.30;;;;;;;;;;4957228;29;20260;-83
2021/10/14 14:10:48;;;;;;;1.00;1.00;;;;;;;;;;4957037;29;20189;-83
2021/10/14 14:13:17;;;;;;;0.80;0.80;;;;;;;;;;4957594;29;20655;-84
2021/10/14 14:15:45;;;;;;;1.13;1.02;;;;;;;;;;4956857;29;20224;-84
2021/10/14 14:18:13;;;;;;;0.90;0.90;;;;;;;;;;4957878;29;20261;-84
2021/10/14 14:20:43;;;;;;;0.90;0.90;;;;;;;;;;4958147;29;20182;-85
2021/10/14 14:23:12;;;;;;;1.05;1.00;;;;;;;;;;4957843;29;20217;-84
2021/10/14 14:25:41;;;;;;;1.30;1.27;;;;;;;;;;4957880;29;20193;-84
2021/10/14 14:28:09;;;;;;;0.95;0.95;;;;;;;;;;4957699;29;20225;-84
2021/10/14 14:30:38;;;;;;;1.50;1.40;;;;;;;;;;4957407;29;20205;-84
2021/10/14 14:33:05;;;;;;;1.10;1.10;;;;;;;;;;4957480;29;20668;-84
2021/10/14 14:35:33;;;;;;;1.67;1.58;;;;;;;;;;4957473;29;20692;-84
2021/10/14 14:38:01;;;;;;;2.03;1.92;;;;;;;;;;4950107;29;20248;-84
2021/10/14 14:40:28;;;;;;;1.85;1.75;;;;;;;;;;4937946;29;20206;-84
2021/10/14 14:42:56;;;;;;;1.75;1.65;;;;;;;;;;4944846;29;20272;-83
2021/10/14 14:45:25;;;;;;;2.10;1.73;;;;;;;;;;4956542;29;20571;-84
2021/10/14 14:47:54;;;;;;;1.45;1.35;;;;;;;;;;4957242;29;20228;-83
2021/10/14 14:50:43;;;;;;;1.92;1.10;;;;;;;;;;4954596;29;20667;-85
2021/10/14 14:53:12;;;;;;;1.38;1.33;;;;;;;;;;4960057;29;20775;-83
2021/10/14 14:55:39;;;;;;;2.30;1.50;;;;;;;;;;4959118;29;20205;-85
2021/10/14 14:58:08;;;;;;;2.00;1.90;;;;;;;;;;4956633;29;20236;-84